アンタナナリボ の空港の天気 - METARとTAF

イヴァト空港(アンタナナリボ) ( FMMI / TNR ) - マダガスカル アンタナナリボ
飛行場実況気象(Metar)
観測時間04/26 14:00 EAT (04/26 11:00 UTC)
風向・風速南東 6m/s
視程10km以上
天気現象
全天の8割程度の雲 雲底高度 700m
気温24℃
湿度57%
気圧1019hPa
METARFMMI 261100Z 14011KT 100V190 9999 BKN023 24/15 Q1019 NOSIG
過去の天気等 Google飛行場航空写真 Wunderground天気予報

過去48時間のMETAR

飛行場予報(TAF)
発表時間: -
TAF
FMMI 260500Z 2606/2712 16010KT 9999 FEW017 BKN020